Time;durP1;ratioP1;P1;durP2;ratioP2;P2;SDS_P1;SDS_P2;PMS_P1;PMS_P2;Temp;Humidity;BMP_temperature;BMP_pressure;BME280_temperature;BME280_humidity;BME280_pressure;Samples;Min_cycle;Max_cycle;Signal;HPM_P1;HPM_P2
2022/05/07 00:02:09;;;;;;;9.73;8.73;;;15.70;98.30;;;;;;5089504;28;20031;-42
2022/05/07 00:04:35;;;;;;;10.38;9.25;;;15.70;98.30;;;;;;5094674;28;20377;-41
2022/05/07 00:07:02;;;;;;;10.05;9.02;;;15.70;98.40;;;;;;5088769;28;20126;-43
2022/05/07 00:09:27;;;;;;;9.75;8.77;;;15.70;98.40;;;;;;5100722;28;20554;-43
2022/05/07 00:11:53;;;;;;;10.52;9.00;;;15.70;98.40;;;;;;5088141;28;20054;-42
2022/05/07 00:14:21;;;;;;;9.73;8.73;;;15.70;98.50;;;;;;5101011;28;20039;-42
2022/05/07 00:19:34;;;;;;;9.95;8.45;;;15.80;98.60;;;;;;5099619;28;20065;-43
2022/05/07 00:22:00;;;;;;;8.88;7.80;;;15.80;98.50;;;;;;5087603;28;20028;-43
2022/05/07 00:24:26;;;;;;;9.25;8.32;;;15.70;98.50;;;;;;5097483;28;20020;-47
2022/05/07 00:26:52;;;;;;;10.00;9.00;;;15.70;98.50;;;;;;5089228;28;20032;-42
2022/05/07 00:29:17;;;;;;;9.30;8.27;;;15.70;98.50;;;;;;5095716;28;20367;-42
2022/05/07 00:31:43;;;;;;;9.40;8.55;;;15.70;98.60;;;;;;5091776;28;20066;-41
2022/05/07 00:34:08;;;;;;;10.25;8.60;;;15.70;98.70;;;;;;5093509;28;20814;-42
2022/05/07 00:36:34;;;;;;;10.60;8.43;;;15.70;98.70;;;;;;5093085;28;20082;-42
2022/05/07 00:39:00;;;;;;;9.82;8.85;;;15.70;98.80;;;;;;5089600;28;20028;-42
2022/05/07 00:41:26;;;;;;;12.80;9.15;;;15.70;98.80;;;;;;5096098;28;20024;-45
2022/05/07 00:43:52;;;;;;;10.70;9.23;;;15.60;98.90;;;;;;5088758;28;20171;-41
2022/05/07 00:46:20;;;;;;;11.32;8.93;;;15.60;98.90;;;;;;5097607;28;20144;-42
2022/05/07 00:48:46;;;;;;;9.43;8.52;;;15.60;99.00;;;;;;5088530;28;20027;-43
2022/05/07 00:53:55;;;;;;;10.15;8.70;;;15.60;99.10;;;;;;5088235;28;20050;-44
2022/05/07 00:56:21;;;;;;;9.23;8.32;;;15.60;99.10;;;;;;5098494;28;20016;-42
2022/05/07 00:58:47;;;;;;;9.48;8.07;;;15.60;99.10;;;;;;5086281;28;20077;-39
2022/05/07 01:01:13;;;;;;;10.00;8.98;;;15.50;99.10;;;;;;5093110;28;20054;-42
2022/05/07 01:03:38;;;;;;;10.20;9.23;;;15.50;99.10;;;;;;5107033;28;20467;-42
2022/05/07 01:06:04;;;;;;;10.15;9.15;;;15.50;99.20;;;;;;5093083;28;20059;-44
2022/05/07 01:08:33;;;;;;;8.98;8.18;;;15.40;99.30;;;;;;5106442;28;20027;-43
2022/05/07 01:10:59;;;;;;;10.35;9.20;;;15.40;99.30;;;;;;5096052;28;20024;-43
2022/05/07 01:13:25;;;;;;;10.23;9.05;;;15.40;99.40;;;;;;5104568;28;20034;-45
2022/05/07 01:15:54;;;;;;;10.63;9.50;;;15.40;99.50;;;;;;5098229;28;20241;-45
2022/05/07 01:18:21;;;;;;;11.65;9.27;;;15.30;99.50;;;;;;5102889;28;20042;-42
2022/05/07 01:20:46;;;;;;;10.82;9.43;;;15.30;99.60;;;;;;5099217;28;20016;-42
2022/05/07 01:23:12;;;;;;;10.63;9.52;;;15.30;99.70;;;;;;5101296;28;20080;-44
2022/05/07 01:25:38;;;;;;;10.77;9.38;;;15.30;99.70;;;;;;5102640;28;20418;-44
2022/05/07 01:28:04;;;;;;;11.80;9.98;;;15.20;99.90;;;;;;5096918;28;20027;-42
2022/05/07 01:30:30;;;;;;;11.32;10.25;;;15.30;99.80;;;;;;5104440;28;20415;-43
2022/05/07 01:32:55;;;;;;;11.23;9.88;;;15.30;99.90;;;;;;5096015;28;20539;-43
2022/05/07 01:35:21;;;;;;;11.07;9.90;;;15.20;99.90;;;;;;5104143;28;20020;-44
2022/05/07 01:37:47;;;;;;;9.93;8.93;;;15.20;99.90;;;;;;5094781;28;20495;-42
2022/05/07 01:40:12;;;;;;;11.90;10.70;;;15.20;99.90;;;;;;5106318;28;20510;-44
2022/05/07 01:42:39;;;;;;;12.70;10.20;;;15.20;99.90;;;;;;5092311;28;20070;-44
2022/05/07 01:45:05;;;;;;;12.43;10.40;;;15.20;99.90;;;;;;5107615;28;20027;-42
2022/05/07 01:50:15;;;;;;;11.52;10.27;;;15.10;99.90;;;;;;5105972;28;20131;-42
2022/05/07 01:52:40;;;;;;;11.25;10.15;;;15.10;99.90;;;;;;5092673;28;20142;-44
2022/05/07 01:55:06;;;;;;;11.95;10.75;;;15.10;99.90;;;;;;5086843;28;20115;-41
2022/05/07 01:57:32;;;;;;;12.20;11.00;;;15.10;99.90;;;;;;5095957;28;20728;-41
2022/05/07 01:59:57;;;;;;;11.77;10.63;;;15.10;99.90;;;;;;5086926;28;20575;-42
2022/05/07 02:02:23;;;;;;;13.43;11.10;;;15.10;99.90;;;;;;5093329;28;20140;-41
2022/05/07 02:04:48;;;;;;;15.48;11.50;;;15.00;99.90;;;;;;5089352;28;20781;-46
2022/05/07 02:07:14;;;;;;;11.75;10.65;;;15.00;99.90;;;;;;5090939;28;20032;-43
2022/05/07 02:09:39;;;;;;;12.80;11.20;;;15.00;99.90;;;;;;5091795;28;20028;-43
2022/05/07 02:12:05;;;;;;;13.00;11.77;;;15.00;99.90;;;;;;5088353;28;20060;-43
2022/05/07 02:14:32;;;;;;;13.27;12.07;;;14.90;99.90;;;;;;5094487;28;20048;-42
2022/05/07 02:16:58;;;;;;;13.77;12.43;;;14.80;99.90;;;;;;5085911;28;20024;-43
2022/05/07 02:19:23;;;;;;;13.32;12.02;;;14.80;99.90;;;;;;5096691;28;20077;-44
2022/05/07 02:21:49;;;;;;;12.90;11.25;;;14.80;99.90;;;;;;5086637;28;20476;-43
2022/05/07 02:24:15;;;;;;;13.20;11.65;;;14.80;99.90;;;;;;5096113;28;20182;-43
2022/05/07 02:26:41;;;;;;;14.18;12.68;;;14.80;99.90;;;;;;5085131;28;20024;-43
2022/05/07 02:29:06;;;;;;;14.88;12.32;;;14.70;99.90;;;;;;5096627;28;20031;-41
2022/05/07 02:31:32;;;;;;;14.20;12.68;;;14.80;99.90;;;;;;5084755;28;20028;-42
2022/05/07 02:33:57;;;;;;;14.25;12.45;;;14.80;99.90;;;;;;5098484;28;20023;-42
2022/05/07 02:36:23;;;;;;;13.05;11.73;;;14.70;99.90;;;;;;5085800;28;20039;-42
2022/05/07 02:38:48;;;;;;;13.38;12.07;;;14.80;99.90;;;;;;5095445;28;20080;-43
2022/05/07 02:43:58;;;;;;;12.57;11.38;;;14.80;99.90;;;;;;5095330;28;20084;-43
2022/05/07 02:46:24;;;;;;;12.63;11.25;;;14.80;99.90;;;;;;5086951;28;20481;-43
2022/05/07 02:48:49;;;;;;;12.90;11.68;;;14.70;99.90;;;;;;5092719;28;20034;-42
2022/05/07 02:51:15;;;;;;;12.90;11.68;;;14.70;99.90;;;;;;5089886;28;20143;-42
2022/05/07 02:53:40;;;;;;;12.70;11.40;;;14.70;99.90;;;;;;5092196;28;20035;-42
2022/05/07 02:56:07;;;;;;;12.80;11.60;;;14.80;99.90;;;;;;5089196;28;20024;-42
2022/05/07 02:58:33;;;;;;;13.07;11.73;;;14.70;99.90;;;;;;5085993;28;20040;-45
2022/05/07 03:00:58;;;;;;;13.02;11.73;;;14.70;99.90;;;;;;5095582;28;20040;-43
2022/05/07 03:03:24;;;;;;;14.05;12.65;;;14.70;99.90;;;;;;5085810;28;20028;-42
2022/05/07 03:05:49;;;;;;;14.20;12.38;;;14.70;99.90;;;;;;5095152;28;20099;-43
2022/05/07 03:08:15;;;;;;;14.57;13.15;;;14.70;99.90;;;;;;5085031;28;20036;-42
2022/05/07 03:10:40;;;;;;;12.35;11.15;;;14.70;99.90;;;;;;5096826;28;20052;-45
2022/05/07 03:13:06;;;;;;;14.40;13.00;;;14.70;99.90;;;;;;5084574;28;20028;-43
2022/05/07 03:15:32;;;;;;;14.05;12.65;;;14.70;99.90;;;;;;5097460;28;20024;-43
2022/05/07 03:17:57;;;;;;;15.50;13.93;;;14.70;99.90;;;;;;5085610;28;20371;-43
2022/05/07 03:20:26;;;;;;;15.45;13.85;;;14.60;99.90;;;;;;5096593;28;20026;-43
2022/05/07 03:22:51;;;;;;;15.43;13.82;;;14.60;99.90;;;;;;5084910;28;20553;-43
2022/05/07 03:25:17;;;;;;;13.93;12.60;;;14.60;99.90;;;;;;5094594;28;20030;-44
2022/05/07 03:27:42;;;;;;;15.63;14.13;;;14.60;99.90;;;;;;5086933;28;20040;-42
2022/05/07 03:30:08;;;;;;;16.63;15.02;;;14.60;99.90;;;;;;5091519;28;20363;-42
2022/05/07 03:32:35;;;;;;;16.55;14.82;;;14.50;99.90;;;;;;5090184;28;20027;-42
2022/05/07 03:35:01;;;;;;;17.23;15.35;;;14.60;99.90;;;;;;5089200;28;20031;-44
2022/05/07 03:37:27;;;;;;;17.13;14.88;;;14.60;99.90;;;;;;5093499;28;20042;-42
2022/05/07 03:39:53;;;;;;;17.02;15.43;;;14.60;99.90;;;;;;5087051;28;20016;-43
2022/05/07 03:42:22;;;;;;;16.13;14.63;;;14.60;99.90;;;;;;5098851;28;20028;-43
2022/05/07 03:44:47;;;;;;;17.42;15.40;;;14.60;99.90;;;;;;5090164;28;20024;-43
2022/05/07 03:47:13;;;;;;;16.65;14.95;;;14.60;99.90;;;;;;5099848;28;20077;-44
2022/05/07 03:49:38;;;;;;;18.98;17.00;;;14.60;99.90;;;;;;5089214;28;20036;-40
2022/05/07 03:54:49;;;;;;;18.92;16.95;;;14.60;99.90;;;;;;5102285;28;20034;-42
2022/05/07 03:57:17;;;;;;;18.27;16.35;;;14.60;99.90;;;;;;5096169;28;20031;-43
2022/05/07 03:59:43;;;;;;;19.90;17.55;;;14.60;99.90;;;;;;5108193;28;20051;-43
2022/05/07 04:02:09;;;;;;;19.20;17.27;;;14.60;99.90;;;;;;5095130;28;20020;-42
2022/05/07 04:04:35;;;;;;;19.52;17.63;;;14.70;99.90;;;;;;5107882;28;20028;-43
2022/05/07 04:07:01;;;;;;;19.65;16.95;;;14.70;99.90;;;;;;5095228;28;20047;-43
2022/05/07 04:09:27;;;;;;;19.40;17.40;;;14.70;99.90;;;;;;5067014;28;20028;-41
2022/05/07 04:11:52;;;;;;;20.58;18.45;;;14.70;99.90;;;;;;5092518;28;20028;-43
2022/05/07 04:14:18;;;;;;;20.17;18.13;;;14.70;99.90;;;;;;5090791;28;20031;-40
2022/05/07 04:16:44;;;;;;;19.13;17.15;;;14.80;99.90;;;;;;5094708;28;20050;-43
2022/05/07 04:19:11;;;;;;;20.58;18.38;;;14.80;99.90;;;;;;5093054;28;20036;-41
2022/05/07 04:21:38;;;;;;;19.98;17.88;;;14.80;99.90;;;;;;5092888;28;20057;-43
2022/05/07 04:24:04;;;;;;;19.30;17.30;;;14.80;99.90;;;;;;5095602;28;20032;-43
2022/05/07 04:26:30;;;;;;;19.17;17.27;;;14.80;99.90;;;;;;5090320;28;20030;-43
2022/05/07 04:28:55;;;;;;;20.25;18.25;;;14.90;99.90;;;;;;5098365;28;20024;-43
2022/05/07 04:31:21;;;;;;;20.33;18.23;;;14.90;99.90;;;;;;5087922;28;20593;-43
2022/05/07 04:33:46;;;;;;;21.13;18.40;;;14.90;99.90;;;;;;5098736;28;20035;-42
2022/05/07 04:36:12;;;;;;;21.10;18.88;;;14.90;99.90;;;;;;5088665;28;20047;-42
2022/05/07 04:38:38;;;;;;;21.33;19.02;;;14.90;99.90;;;;;;5098578;28;20059;-42
2022/05/07 04:41:03;;;;;;;20.70;18.52;;;14.90;99.90;;;;;;5087570;28;20452;-40
2022/05/07 04:43:32;;;;;;;20.65;18.45;;;14.90;99.90;;;;;;5100210;28;20031;-42
2022/05/07 04:45:57;;;;;;;24.40;18.10;;;15.00;99.90;;;;;;5087565;28;20055;-44
2022/05/07 04:48:23;;;;;;;21.30;18.50;;;15.00;99.90;;;;;;5100332;28;20059;-42
2022/05/07 04:50:48;;;;;;;21.08;18.95;;;15.00;99.90;;;;;;5087751;28;20024;-41
2022/05/07 04:53:14;;;;;;;20.60;18.40;;;15.00;99.90;;;;;;5094661;28;20040;-42
2022/05/07 04:55:39;;;;;;;21.55;19.35;;;15.10;99.90;;;;;;5107359;28;20039;-42
2022/05/07 04:58:05;;;;;;;22.10;19.75;;;15.00;99.90;;;;;;5099816;28;20020;-43
2022/05/07 05:00:30;;;;;;;22.67;19.25;;;15.10;99.90;;;;;;5101030;28;20039;-43
2022/05/07 05:02:56;;;;;;;21.20;18.80;;;15.10;99.90;;;;;;5102610;28;20048;-43
2022/05/07 05:05:21;;;;;;;20.48;18.27;;;15.10;99.90;;;;;;5098433;28;20110;-42
2022/05/07 05:07:47;;;;;;;20.55;18.52;;;15.20;99.90;;;;;;5104775;28;20108;-42
2022/05/07 05:10:12;;;;;;;20.00;17.83;;;15.20;99.90;;;;;;5096103;28;20027;-42
2022/05/07 05:12:38;;;;;;;21.35;19.13;;;15.20;99.90;;;;;;5104882;28;20105;-42
2022/05/07 05:15:06;;;;;;;22.30;20.00;;;15.20;99.90;;;;;;5095702;28;20020;-41
2022/05/07 05:17:33;;;;;;;20.15;18.10;;;15.30;99.90;;;;;;5105850;28;20051;-43
2022/05/07 05:19:59;;;;;;;20.75;18.55;;;15.30;99.90;;;;;;5093913;28;20463;-40
2022/05/07 05:22:25;;;;;;;21.30;19.00;;;15.30;99.90;;;;;;5106015;28;20490;-43
2022/05/07 05:24:50;;;;;;;20.35;18.25;;;15.30;99.90;;;;;;5094530;28;20020;-43
2022/05/07 05:27:16;;;;;;;21.15;18.65;;;15.30;99.90;;;;;;5106185;28;20064;-43
2022/05/07 05:29:41;;;;;;;21.52;19.23;;;15.30;99.90;;;;;;5094727;28;20024;-42
2022/05/07 05:32:07;;;;;;;20.33;18.23;;;15.30;99.90;;;;;;5106631;28;20033;-42
2022/05/07 05:34:33;;;;;;;21.85;19.00;;;15.30;99.90;;;;;;5096646;28;20018;-43
2022/05/07 05:36:59;;;;;;;21.90;19.50;;;15.40;99.90;;;;;;5104452;28;20031;-43
2022/05/07 05:39:24;;;;;;;21.50;19.13;;;15.40;99.90;;;;;;5099320;28;20047;-42
2022/05/07 05:41:50;;;;;;;20.75;18.50;;;15.50;99.90;;;;;;5101094;28;20052;-39
2022/05/07 05:44:15;;;;;;;22.50;19.65;;;15.50;99.90;;;;;;5103783;28;20019;-40
2022/05/07 05:46:41;;;;;;;21.27;19.02;;;15.60;99.90;;;;;;5098356;28;20198;-44
2022/05/07 05:49:06;;;;;;;21.70;19.40;;;15.70;99.90;;;;;;5104462;28;20691;-43
2022/05/07 05:51:32;;;;;;;20.83;18.60;;;15.70;99.90;;;;;;5083796;28;20026;-41
2022/05/07 05:53:57;;;;;;;22.00;19.70;;;15.80;99.90;;;;;;5104033;28;20028;-42
2022/05/07 05:56:23;;;;;;;20.83;18.63;;;15.80;99.90;;;;;;5093799;28;20012;-42
2022/05/07 05:58:48;;;;;;;21.95;19.70;;;15.90;99.90;;;;;;5106365;28;20123;-44
2022/05/07 06:01:14;;;;;;;23.73;20.45;;;15.90;99.90;;;;;;5092616;28;20043;-41
2022/05/07 06:03:39;;;;;;;21.00;18.80;;;15.90;99.90;;;;;;5106233;28;20288;-42
2022/05/07 06:06:05;;;;;;;21.77;17.83;;;16.00;99.90;;;;;;5093024;28;20028;-43
2022/05/07 06:08:30;;;;;;;20.58;18.40;;;16.00;99.90;;;;;;5105926;28;20023;-43
2022/05/07 06:10:57;;;;;;;22.00;18.63;;;16.00;99.90;;;;;;5095103;28;20463;-43
2022/05/07 06:13:25;;;;;;;21.48;19.17;;;16.00;99.90;;;;;;5105947;28;20024;-43
2022/05/07 06:15:51;;;;;;;19.98;17.92;;;16.00;99.90;;;;;;5096096;28;20137;-43
2022/05/07 06:18:25;;;;;;;21.02;18.92;;;16.10;99.90;;;;;;5101939;28;20032;-42
2022/05/07 06:20:51;;;;;;;19.13;17.23;;;16.10;99.90;;;;;;5099197;28;20024;-42
2022/05/07 06:23:17;;;;;;;21.42;18.55;;;16.10;99.90;;;;;;5100211;28;20026;-43
2022/05/07 06:28:27;;;;;;;19.67;17.63;;;16.10;99.90;;;;;;5100786;28;20395;-43
2022/05/07 06:30:53;;;;;;;19.35;17.25;;;16.10;99.90;;;;;;5100171;28;20016;-42
2022/05/07 06:33:19;;;;;;;18.98;17.10;;;16.20;99.90;;;;;;5096310;28;20108;-42
2022/05/07 06:35:45;;;;;;;18.08;16.25;;;16.20;99.90;;;;;;5104308;28;20027;-43
2022/05/07 06:38:11;;;;;;;18.63;16.67;;;16.20;99.90;;;;;;5095740;28;20045;-43
2022/05/07 06:40:38;;;;;;;17.35;15.57;;;16.30;99.90;;;;;;5105580;28;20030;-43
2022/05/07 06:43:06;;;;;;;16.30;14.55;;;16.40;99.90;;;;;;5095645;28;20467;-42
2022/05/07 06:45:32;;;;;;;15.55;13.95;;;16.40;99.90;;;;;;5104128;28;20443;-43
2022/05/07 06:47:58;;;;;;;15.52;13.68;;;16.50;99.90;;;;;;5095009;28;20039;-42
2022/05/07 06:50:24;;;;;;;16.10;14.20;;;16.60;99.90;;;;;;5106136;28;20051;-43
2022/05/07 06:52:49;;;;;;;14.63;11.95;;;16.60;99.90;;;;;;5092889;28;20027;-44
2022/05/07 06:55:16;;;;;;;13.57;12.07;;;16.70;99.90;;;;;;5088752;28;20148;-42
2022/05/07 06:57:42;;;;;;;13.00;10.52;;;16.70;99.90;;;;;;5097154;28;20036;-43
2022/05/07 07:00:10;;;;;;;15.02;11.65;;;16.80;99.90;;;;;;5086627;28;20044;-42
2022/05/07 07:02:36;;;;;;;13.50;10.90;;;16.80;99.90;;;;;;5095608;28;20115;-43
2022/05/07 07:05:02;;;;;;;13.60;11.27;;;16.80;99.90;;;;;;5087635;28;20028;-43
2022/05/07 07:07:28;;;;;;;14.45;11.23;;;16.80;99.90;;;;;;5093534;28;20463;-42
2022/05/07 07:09:55;;;;;;;14.98;11.68;;;16.90;99.90;;;;;;5089158;28;20047;-42
2022/05/07 07:12:21;;;;;;;15.10;11.98;;;16.90;99.90;;;;;;5089916;28;20023;-42
2022/05/07 07:14:50;;;;;;;12.88;11.48;;;17.00;99.90;;;;;;5094721;28;20028;-45
2022/05/07 07:17:17;;;;;;;15.23;11.70;;;17.00;99.90;;;;;;5092874;28;20034;-43
2022/05/07 07:19:43;;;;;;;12.98;10.73;;;17.10;99.90;;;;;;5099376;28;20024;-44
2022/05/07 07:22:09;;;;;;;14.63;10.40;;;17.10;99.90;;;;;;5091504;28;20460;-43
2022/05/07 07:24:34;;;;;;;13.15;9.60;;;17.20;99.90;;;;;;5099775;28;20021;-43
2022/05/07 07:27:00;;;;;;;13.38;10.13;;;17.30;99.90;;;;;;5089164;28;20020;-43
2022/05/07 07:29:25;;;;;;;12.90;10.25;;;17.30;99.90;;;;;;5099762;28;20135;-43
2022/05/07 07:31:51;;;;;;;12.10;9.80;;;17.40;99.90;;;;;;5090247;28;20028;-42
2022/05/07 07:34:17;;;;;;;14.60;10.80;;;17.50;99.90;;;;;;5101839;28;20016;-44
2022/05/07 07:36:46;;;;;;;11.60;9.52;;;17.60;99.90;;;;;;5090390;28;20032;-43
2022/05/07 07:39:11;;;;;;;11.85;8.82;;;17.60;99.90;;;;;;5101532;28;20024;-43
2022/05/07 07:41:37;;;;;;;9.38;7.95;;;17.60;99.90;;;;;;5089622;28;20023;-42
2022/05/07 07:44:03;;;;;;;12.32;8.52;;;17.70;99.90;;;;;;5099981;28;20024;-43
2022/05/07 07:49:12;;;;;;;12.05;8.48;;;17.70;99.90;;;;;;5100810;28;20042;-44
2022/05/07 07:51:38;;;;;;;11.10;9.60;;;17.70;99.90;;;;;;5091827;28;20024;-43
2022/05/07 07:54:06;;;;;;;12.00;9.30;;;17.70;99.90;;;;;;5091357;28;20028;-43
2022/05/07 07:56:32;;;;;;;11.25;7.88;;;17.70;99.90;;;;;;5088921;28;20119;-42
2022/05/07 07:58:57;;;;;;;11.48;7.97;;;17.70;99.90;;;;;;5097354;28;20122;-43
2022/05/07 08:01:23;;;;;;;11.45;7.60;;;17.70;99.90;;;;;;5102303;28;20732;-43
2022/05/07 08:03:48;;;;;;;8.68;7.18;;;17.80;99.90;;;;;;5106627;28;20118;-43
2022/05/07 08:06:14;;;;;;;9.70;7.75;;;17.80;99.90;;;;;;5100026;28;20115;-43
2022/05/07 08:14:08;;;;;;;9.65;7.40;;;17.80;99.90;;;;;;5107201;28;20043;-43
2022/05/07 08:16:35;;;;;;;9.57;6.55;;;17.80;99.90;;;;;;5097959;28;20035;-42
2022/05/07 08:19:03;;;;;;;10.52;6.95;;;17.80;99.90;;;;;;5108667;28;20088;-41
2022/05/07 08:21:28;;;;;;;10.30;6.97;;;17.80;99.90;;;;;;5098117;28;20016;-43
2022/05/07 08:23:54;;;;;;;9.63;6.20;;;17.90;99.80;;;;;;5107396;28;20076;-42
2022/05/07 08:26:26;;;;;;;9.48;6.78;;;18.00;99.80;;;;;;5096923;28;20101;-42
2022/05/07 08:28:52;;;;;;;10.13;7.50;;;18.00;99.70;;;;;;5110010;28;20028;-43
2022/05/07 08:31:21;;;;;;;9.68;6.43;;;18.00;99.50;;;;;;5094981;28;20023;-42
2022/05/07 08:33:47;;;;;;;11.45;7.03;;;18.10;99.50;;;;;;5109390;28;20523;-42
2022/05/07 08:36:13;;;;;;;10.55;7.25;;;18.10;99.40;;;;;;5095630;28;20103;-45
2022/05/07 08:38:39;;;;;;;12.20;8.25;;;18.10;99.40;;;;;;5109337;28;20070;-43
2022/05/07 08:41:04;;;;;;;13.70;8.10;;;18.10;99.30;;;;;;5097429;28;20024;-42
2022/05/07 08:43:36;;;;;;;12.25;7.80;;;18.20;99.20;;;;;;5107351;28;20051;-43
2022/05/07 08:46:10;;;;;;;8.35;6.55;;;18.20;99.30;;;;;;5099233;28;20036;-43
2022/05/07 08:48:35;;;;;;;9.45;6.07;;;18.30;99.20;;;;;;5107068;28;20034;-43
2022/05/07 08:51:03;;;;;;;7.65;5.97;;;18.40;99.20;;;;;;5099640;28;20024;-43
2022/05/07 08:53:30;;;;;;;9.77;6.97;;;18.50;99.10;;;;;;5103831;28;20047;-44
2022/05/07 08:55:58;;;;;;;10.98;7.00;;;18.60;99.00;;;;;;5095286;28;20020;-43
2022/05/07 08:58:24;;;;;;;8.35;6.10;;;18.70;99.20;;;;;;5093083;28;20471;-43
2022/05/07 09:00:52;;;;;;;9.30;7.70;;;18.80;98.80;;;;;;5092147;28;20182;-42
2022/05/07 09:03:18;;;;;;;8.93;6.65;;;18.80;98.70;;;;;;5095981;28;20032;-42
2022/05/07 09:05:44;;;;;;;11.77;8.23;;;18.90;98.70;;;;;;5087836;28;20096;-43
2022/05/07 09:08:13;;;;;;;11.70;7.28;;;19.00;98.60;;;;;;5097906;28;20028;-41
2022/05/07 09:10:39;;;;;;;9.75;7.10;;;19.00;98.50;;;;;;5088091;28;20077;-43
2022/05/07 09:13:09;;;;;;;11.20;8.15;;;19.10;98.50;;;;;;5097318;28;20087;-42
2022/05/07 09:15:35;;;;;;;11.40;8.13;;;19.20;98.10;;;;;;5087843;28;20031;-43
2022/05/07 09:18:11;;;;;;;9.85;6.68;;;19.30;98.00;;;;;;5098547;28;20024;-42
2022/05/07 09:20:36;;;;;;;12.48;7.80;;;19.30;97.80;;;;;;5087338;28;20098;-43
2022/05/07 09:23:02;;;;;;;9.20;6.88;;;19.30;96.70;;;;;;5099929;28;20436;-42
2022/05/07 09:25:29;;;;;;;11.55;6.43;;;19.30;96.80;;;;;;5085637;28;20032;-43
2022/05/07 09:27:57;;;;;;;8.15;5.97;;;19.30;96.60;;;;;;5100014;28;20023;-42
2022/05/07 09:30:30;;;;;;;9.25;6.15;;;19.40;96.70;;;;;;5087653;28;20028;-42
2022/05/07 09:32:56;;;;;;;10.57;6.45;;;19.40;96.70;;;;;;5099137;28;20023;-43
2022/05/07 09:38:11;;;;;;;9.02;7.00;;;19.40;96.70;;;;;;5098869;28;20046;-43
2022/05/07 09:40:40;;;;;;;8.25;6.07;;;19.60;96.40;;;;;;5086414;28;20024;-43
2022/05/07 09:43:08;;;;;;;9.50;6.15;;;19.60;96.20;;;;;;5098584;28;20035;-42
2022/05/07 09:45:35;;;;;;;7.78;5.90;;;19.60;96.00;;;;;;5086878;28;20031;-42
2022/05/07 09:48:01;;;;;;;8.55;5.40;;;19.60;95.90;;;;;;5096092;28;20123;-43
2022/05/07 09:58:42;;;;;;;7.28;5.57;;;20.00;95.50;;;;;;5094411;28;20122;-43
2022/05/07 10:01:10;;;;;;;8.95;6.35;;;20.20;95.30;;;;;;5105655;28;20044;-44
2022/05/07 10:03:53;;;;;;;8.70;6.50;;;20.30;94.90;;;;;;5096371;28;20028;-43
2022/05/07 10:06:23;;;;;;;;;;;20.40;94.90;;;;;;5107519;28;20474;-44
2022/05/07 10:09:33;;;;;;;7.68;5.60;;;20.40;94.90;;;;;;5096197;28;19915;-44
2022/05/07 10:11:59;;;;;;;12.43;8.68;;;20.50;94.90;;;;;;5066452;28;20025;-43
2022/05/07 10:14:30;;;;;;;13.65;7.50;;;20.50;94.20;;;;;;5095450;28;20479;-42
2022/05/07 10:17:15;;;;;;;9.52;7.13;;;20.50;94.50;;;;;;5087150;28;20028;-45
2022/05/07 10:19:45;;;;;;;7.45;5.95;;;20.60;94.50;;;;;;5098544;28;20134;-44
2022/05/07 10:22:23;;;;;;;10.07;7.10;;;20.70;94.50;;;;;;5085715;28;20103;-42
2022/05/07 10:25:10;;;;;;;10.02;7.38;;;20.80;94.20;;;;;;5099016;28;20507;-42
2022/05/07 10:27:36;;;;;;;11.40;7.53;;;20.80;94.20;;;;;;5086272;28;20028;-45
2022/05/07 10:30:22;;;;;;;11.70;7.93;;;20.80;94.10;;;;;;5098118;28;20556;-41
2022/05/07 10:32:58;;;;;;;10.27;6.80;;;20.80;94.10;;;;;;5085769;28;20064;-42
2022/05/07 10:35:53;;;;;;;9.82;7.00;;;20.80;94.20;;;;;;5098562;28;20027;-43
2022/05/07 10:38:28;;;;;;;11.07;7.78;;;20.90;94.10;;;;;;5087055;28;20395;-43
2022/05/07 10:40:58;;;;;;;9.50;6.40;;;21.00;94.00;;;;;;5097576;28;20044;-43
2022/05/07 10:43:47;;;;;;;8.70;6.57;;;21.00;93.80;;;;;;5085985;28;20511;-43
2022/05/07 10:46:16;;;;;;;7.45;5.75;;;21.10;93.80;;;;;;5082134;28;20040;-42
2022/05/07 10:48:47;;;;;;;7.65;5.93;;;21.20;93.60;;;;;;5087331;28;20028;-42
2022/05/07 10:51:39;;;;;;;7.88;6.25;;;21.40;93.40;;;;;;5099796;28;20023;-44
2022/05/07 10:54:22;;;;;;;10.43;7.45;;;21.60;93.20;;;;;;5092008;28;20622;-42
2022/05/07 10:56:49;;;;;;;8.75;6.47;;;21.80;92.90;;;;;;5089003;28;20027;-43
2022/05/07 10:59:14;;;;;;;13.13;7.18;;;21.90;92.90;;;;;;5107814;28;20505;-44
2022/05/07 11:01:43;;;;;;;9.38;7.60;;;22.00;92.50;;;;;;5077124;28;20031;-42
2022/05/07 11:04:12;;;;;;;6.07;5.47;;;22.00;92.10;;;;;;5088643;28;20035;-42
2022/05/07 11:06:40;;;;;;;11.23;7.93;;;22.10;92.30;;;;;;5077596;28;20031;-43
2022/05/07 11:09:06;;;;;;;11.48;7.57;;;22.10;91.80;;;;;;5069481;28;20115;-42
2022/05/07 11:11:44;;;;;;;10.35;7.50;;;22.00;91.60;;;;;;5080360;28;20111;-43
2022/05/07 11:14:18;;;;;;;8.60;6.63;;;21.90;91.70;;;;;;5069359;28;20067;-42
2022/05/07 11:16:44;;;;;;;11.85;7.78;;;21.90;91.90;;;;;;5076806;28;20090;-43
2022/05/07 11:19:12;;;;;;;9.57;7.43;;;21.90;91.30;;;;;;5089335;28;20048;-43
2022/05/07 11:21:38;;;;;;;10.98;7.90;;;21.90;91.50;;;;;;5076402;28;20021;-43
2022/05/07 11:24:03;;;;;;;9.63;7.70;;;21.90;90.90;;;;;;5089999;28;20020;-42
2022/05/07 11:26:29;;;;;;;7.85;6.22;;;21.90;90.90;;;;;;5077150;28;20078;-43
2022/05/07 11:28:55;;;;;;;7.25;6.10;;;21.80;91.20;;;;;;5088547;28;20059;-43
2022/05/07 11:31:33;;;;;;;7.95;5.47;;;21.80;91.40;;;;;;5080714;28;20020;-42
2022/05/07 11:34:12;;;;;;;11.30;8.70;;;21.80;91.40;;;;;;5086457;28;20104;-43
2022/05/07 11:36:38;;;;;;;9.93;7.40;;;21.70;91.10;;;;;;5079325;28;20345;-42
2022/05/07 11:39:06;;;;;;;7.30;5.50;;;21.50;91.40;;;;;;5085871;28;20501;-43
2022/05/07 11:41:33;;;;;;;11.77;8.48;;;21.40;91.60;;;;;;5081779;28;20181;-43
2022/05/07 11:46:54;;;;;;;7.88;6.20;;;21.00;93.10;;;;;;5080879;28;20043;-43
2022/05/07 11:49:36;;;;;;;9.13;6.63;;;20.60;93.80;;;;;;5085890;28;20131;-43
2022/05/07 11:52:12;;;;;;;9.23;5.63;;;20.30;94.70;;;;;;5080754;28;20036;-43
2022/05/07 11:54:49;;;;;;;7.18;6.13;;;20.00;95.10;;;;;;5077073;28;20028;-43
2022/05/07 11:57:25;;;;;;;10.45;6.03;;;19.90;95.90;;;;;;5077628;28;20371;-43
2022/05/07 11:59:50;;;;;;;7.53;5.80;;;19.70;95.80;;;;;;5076074;28;20036;-43
2022/05/07 12:02:16;;;;;;;5.68;4.25;;;19.60;96.00;;;;;;5095102;28;20038;-43
2022/05/07 12:04:42;;;;;;;8.50;5.07;;;19.60;96.10;;;;;;5093278;28;20024;-41
2022/05/07 12:07:10;;;;;;;7.32;4.43;;;19.50;96.30;;;;;;5093395;28;20016;-43
2022/05/07 12:09:35;;;;;;;7.43;5.30;;;19.50;96.40;;;;;;5095966;28;20044;-42
2022/05/07 12:12:01;;;;;;;6.55;5.43;;;19.40;96.60;;;;;;5090650;28;20387;-40
2022/05/07 12:14:26;;;;;;;9.63;7.40;;;19.30;97.40;;;;;;5096991;28;20097;-41
2022/05/07 12:19:36;;;;;;;10.20;6.53;;;19.00;98.90;;;;;;5088008;28;20038;-42
2022/05/07 12:30:14;;;;;;;8.25;5.95;;;18.40;99.90;;;;;;5098947;28;20043;-43
2022/05/07 12:32:43;;;;;;;7.93;6.10;;;18.50;99.90;;;;;;5104309;28;20019;-43
2022/05/07 12:35:12;;;;;;;6.40;5.32;;;18.60;99.90;;;;;;5097162;28;20024;-43
2022/05/07 12:37:38;;;;;;;7.90;5.78;;;18.60;99.70;;;;;;5105367;28;20027;-42
2022/05/07 12:40:07;;;;;;;8.27;5.50;;;18.80;99.70;;;;;;5095863;28;20641;-42
2022/05/07 12:42:32;;;;;;;7.65;5.00;;;19.00;99.40;;;;;;5105198;28;20815;-43
2022/05/07 12:44:58;;;;;;;8.52;6.35;;;19.20;99.30;;;;;;5096298;28;20034;-43
2022/05/07 12:47:24;;;;;;;7.80;4.88;;;19.50;98.90;;;;;;5107406;28;20023;-41
2022/05/07 12:49:49;;;;;;;6.80;5.35;;;19.80;98.70;;;;;;5093995;28;20020;-43
2022/05/07 12:52:16;;;;;;;8.73;6.93;;;20.10;98.40;;;;;;5107620;28;20044;-42
2022/05/07 12:54:42;;;;;;;10.20;6.93;;;20.30;98.10;;;;;;5101992;28;20024;-43
2022/05/07 12:57:07;;;;;;;7.68;5.70;;;20.40;97.80;;;;;;5106762;28;20020;-42
2022/05/07 12:59:33;;;;;;;9.65;7.28;;;20.50;97.80;;;;;;5101533;28;20024;-43
2022/05/07 13:02:03;;;;;;;12.43;9.20;;;20.70;97.70;;;;;;5088700;28;20020;-42
2022/05/07 13:04:29;;;;;;;8.77;7.53;;;20.80;97.40;;;;;;5094010;28;20091;-43
2022/05/07 13:06:54;;;;;;;11.48;8.43;;;20.90;97.30;;;;;;5090376;28;20723;-43
2022/05/07 13:09:20;;;;;;;10.77;7.45;;;21.10;97.20;;;;;;5092553;28;20465;-42
2022/05/07 13:11:46;;;;;;;10.82;8.38;;;21.30;97.10;;;;;;5091803;28;20024;-44
2022/05/07 13:14:12;;;;;;;10.65;7.80;;;21.40;96.80;;;;;;5089014;28;20740;-45
2022/05/07 13:16:37;;;;;;;10.30;6.93;;;21.40;96.40;;;;;;5094028;28;20056;-42
2022/05/07 13:19:03;;;;;;;9.35;6.68;;;21.40;96.50;;;;;;5086991;28;20380;-42
2022/05/07 13:21:28;;;;;;;8.10;5.93;;;21.40;96.20;;;;;;5097010;28;20059;-42
2022/05/07 13:23:54;;;;;;;9.45;6.85;;;21.30;96.30;;;;;;5087985;28;20436;-41
2022/05/07 13:26:19;;;;;;;7.15;6.15;;;21.30;96.10;;;;;;5097497;28;20020;-44